createdAt,value
2023-04-07T00:03:17.971Z,22.40
2023-04-07T00:08:11.220Z,18.10
2023-04-07T00:13:04.473Z,17.80
2023-04-07T00:17:57.415Z,18.80
2023-04-07T00:22:50.664Z,16.80
2023-04-07T00:27:43.474Z,19.00
2023-04-07T00:32:36.626Z,19.40
2023-04-07T00:37:29.711Z,19.70
2023-04-07T00:42:25.461Z,18.90
2023-04-07T00:47:18.305Z,19.50
2023-04-07T00:52:12.570Z,18.70
2023-04-07T00:57:05.557Z,20.40
2023-04-07T01:07:47.500Z,19.40
2023-04-07T01:12:49.114Z,21.50
2023-04-07T01:17:54.544Z,21.30
2023-04-07T01:22:54.590Z,20.40
2023-04-07T01:28:04.227Z,21.20
2023-04-07T01:32:59.523Z,20.60
2023-04-07T01:37:53.747Z,21.80
2023-04-07T01:42:48.813Z,21.60
2023-04-07T01:47:45.123Z,21.40
2023-04-07T01:52:39.103Z,23.00
2023-04-07T01:57:32.280Z,24.20
2023-04-07T02:02:30.712Z,21.50
2023-04-07T02:07:41.439Z,22.70
2023-04-07T02:12:36.606Z,24.80
2023-04-07T02:17:39.331Z,24.60
2023-04-07T02:22:34.309Z,25.80
2023-04-07T02:27:27.133Z,23.30
2023-04-07T02:32:20.076Z,26.70
2023-04-07T02:37:12.970Z,24.80
2023-04-07T02:42:05.953Z,26.90
2023-04-07T02:46:58.760Z,25.20
2023-04-07T02:51:51.557Z,26.10
2023-04-07T02:56:44.354Z,28.40
2023-04-07T03:01:37.266Z,27.70
2023-04-07T03:06:30.215Z,27.30
2023-04-07T03:11:31.298Z,26.30
2023-04-07T03:16:25.746Z,27.20
2023-04-07T03:21:25.993Z,28.00
2023-04-07T03:26:18.910Z,27.20
2023-04-07T03:31:11.837Z,29.30
2023-04-07T03:36:04.922Z,28.60
2023-04-07T03:40:58.475Z,27.80
2023-04-07T03:45:51.951Z,29.60
2023-04-07T03:50:47.720Z,29.30
2023-04-07T03:55:43.760Z,28.70
2023-04-07T04:00:44.063Z,28.80
2023-04-07T04:05:37.454Z,28.10
2023-04-07T04:10:30.482Z,28.80
2023-04-07T04:15:24.030Z,28.30
2023-04-07T04:20:17.174Z,29.90
2023-04-07T04:25:13.452Z,26.60
2023-04-07T04:30:09.544Z,28.60
2023-04-07T04:35:14.810Z,29.00
2023-04-07T04:40:16.055Z,27.30
2023-04-07T04:45:10.385Z,28.40
2023-04-07T04:50:04.654Z,29.50
2023-04-07T04:54:59.412Z,28.20
2023-04-07T04:59:53.011Z,29.70
2023-04-07T05:04:46.373Z,30.30
2023-04-07T05:09:51.343Z,29.60
2023-04-07T05:14:45.089Z,29.30
2023-04-07T05:19:37.959Z,30.20
2023-04-07T05:24:36.931Z,31.80
2023-04-07T05:29:30.734Z,29.60
2023-04-07T05:34:24.160Z,28.20
2023-04-07T05:39:19.958Z,28.80
2023-04-07T05:44:13.694Z,29.30
2023-04-07T05:54:06.499Z,28.10
2023-04-07T05:59:00.698Z,27.60
2023-04-07T06:03:53.976Z,27.60
2023-04-07T06:08:52.024Z,27.30
2023-04-07T06:13:44.942Z,27.30
2023-04-07T06:18:38.009Z,27.20
2023-04-07T06:23:32.567Z,25.30
2023-04-07T06:28:25.579Z,26.00
2023-04-07T06:33:18.860Z,23.70
2023-04-07T06:38:12.369Z,22.70
2023-04-07T06:43:06.368Z,24.20
2023-04-07T06:48:15.706Z,25.90
2023-04-07T06:53:08.505Z,22.80
2023-04-07T06:58:02.946Z,23.20
2023-04-07T07:02:56.132Z,22.80
2023-04-07T07:07:49.062Z,23.60
2023-04-07T07:12:41.828Z,23.70
2023-04-07T07:17:34.608Z,22.40
2023-04-07T07:22:27.444Z,25.10
2023-04-07T07:27:20.309Z,22.80
2023-04-07T07:32:13.158Z,23.20
2023-04-07T07:37:06.137Z,21.50
2023-04-07T07:41:58.989Z,19.80
2023-04-07T07:46:52.264Z,19.00
2023-04-07T07:51:46.275Z,18.30
2023-04-07T07:56:39.089Z,17.80
2023-04-07T08:01:32.403Z,19.00
2023-04-07T08:06:25.486Z,19.50
2023-04-07T08:11:19.167Z,17.50
2023-04-07T08:16:12.713Z,18.90
2023-04-07T08:21:06.850Z,17.30
2023-04-07T08:25:59.839Z,17.50
2023-04-07T08:30:52.747Z,17.50
2023-04-07T08:35:45.530Z,16.30
2023-04-07T08:40:38.746Z,16.60
2023-04-07T08:45:34.710Z,15.00
2023-04-07T08:50:28.859Z,16.00
2023-04-07T08:55:22.004Z,15.40
2023-04-07T09:00:16.699Z,15.90
2023-04-07T09:05:10.310Z,14.80
2023-04-07T09:10:04.094Z,15.40
2023-04-07T09:14:57.328Z,15.90
2023-04-07T09:19:50.664Z,15.00
2023-04-07T09:24:43.730Z,14.80
2023-04-07T09:29:36.662Z,16.00
2023-04-07T09:34:34.587Z,15.00
2023-04-07T09:39:28.310Z,14.70
2023-04-07T09:44:22.829Z,14.90
2023-04-07T09:49:15.701Z,15.50
2023-04-07T09:54:08.606Z,13.90
2023-04-07T09:59:03.013Z,14.20
2023-04-07T10:03:56.649Z,14.20
2023-04-07T10:08:49.815Z,13.20
2023-04-07T10:13:43.570Z,14.30
2023-04-07T10:18:38.540Z,14.10
2023-04-07T10:23:58.162Z,13.00
2023-04-07T10:28:55.033Z,14.00
2023-04-07T10:33:51.468Z,12.30
2023-04-07T10:39:11.187Z,12.10
2023-04-07T10:44:05.283Z,12.30
2023-04-07T10:49:11.766Z,11.70
2023-04-07T10:54:23.781Z,11.80
2023-04-07T10:59:17.324Z,11.20
2023-04-07T11:04:10.317Z,11.60
2023-04-07T11:09:03.404Z,12.20
2023-04-07T11:13:56.316Z,12.60
2023-04-07T11:18:49.289Z,11.90
2023-04-07T11:23:44.582Z,12.60
2023-04-07T11:28:46.444Z,13.70
2023-04-07T11:33:42.238Z,13.00
2023-04-07T11:38:39.575Z,11.80
2023-04-07T11:43:32.451Z,11.00
2023-04-07T11:48:31.345Z,11.80
2023-04-07T11:53:32.639Z,10.60
2023-04-07T11:58:51.663Z,13.30
2023-04-07T12:04:04.892Z,11.40
2023-04-07T12:08:58.082Z,12.70
2023-04-07T12:13:51.047Z,11.80
2023-04-07T12:18:43.883Z,7.90
2023-04-07T12:23:37.350Z,5.30
2023-04-07T12:28:31.630Z,3.50
2023-04-07T12:33:24.734Z,2.40
2023-04-07T12:38:17.618Z,2.40
2023-04-07T12:43:10.990Z,1.90
2023-04-07T12:48:04.439Z,2.10
2023-04-07T12:52:59.482Z,2.00
2023-04-07T12:57:52.872Z,2.20
2023-04-07T13:02:46.357Z,2.30
2023-04-07T13:07:39.436Z,2.50
2023-04-07T13:12:32.308Z,2.00
2023-04-07T13:17:25.293Z,2.30
2023-04-07T13:22:21.625Z,2.40
2023-04-07T13:27:15.076Z,2.10
2023-04-07T13:32:13.165Z,2.80
2023-04-07T13:37:07.196Z,2.50
2023-04-07T13:42:01.266Z,2.40
2023-04-07T13:46:56.148Z,2.70
2023-04-07T13:51:49.500Z,2.80
2023-04-07T13:56:42.426Z,3.00
2023-04-07T14:01:39.123Z,2.90
2023-04-07T14:06:32.276Z,2.40
2023-04-07T14:11:25.160Z,2.80
2023-04-07T14:16:18.713Z,2.30
2023-04-07T14:21:11.649Z,2.20
2023-04-07T14:26:05.217Z,2.60
2023-04-07T14:30:58.114Z,2.60
2023-04-07T14:35:51.610Z,2.40
2023-04-07T14:40:45.393Z,2.90
2023-04-07T14:45:39.194Z,2.80
2023-04-07T14:50:34.670Z,2.90
2023-04-07T14:55:27.652Z,3.00
2023-04-07T15:00:21.007Z,2.80
2023-04-07T15:05:13.905Z,2.60
2023-04-07T15:10:07.523Z,2.80
2023-04-07T15:15:00.647Z,2.60
2023-04-07T15:19:53.467Z,2.50
2023-04-07T15:24:46.255Z,2.80
2023-04-07T15:29:42.493Z,2.30
2023-04-07T15:34:35.394Z,2.80
2023-04-07T15:39:28.241Z,2.90
2023-04-07T15:44:21.188Z,3.30
2023-04-07T15:49:14.004Z,3.70
2023-04-07T15:54:06.861Z,2.50
2023-04-07T15:58:59.660Z,2.90
2023-04-07T16:03:52.776Z,3.00
2023-04-07T16:08:45.788Z,3.30
2023-04-07T16:13:38.559Z,2.90
2023-04-07T16:18:31.409Z,2.70
2023-04-07T16:23:24.436Z,3.10
2023-04-07T16:28:17.641Z,3.70
2023-04-07T16:33:10.644Z,2.60
2023-04-07T16:38:06.381Z,2.30
2023-04-07T16:42:59.648Z,2.60
2023-04-07T16:47:52.548Z,3.20
2023-04-07T16:52:46.922Z,2.80
2023-04-07T16:57:39.771Z,2.90
2023-04-07T17:02:33.440Z,2.90
2023-04-07T17:07:26.495Z,2.80
2023-04-07T17:12:19.314Z,2.80
2023-04-07T17:17:12.182Z,3.40
2023-04-07T17:22:05.000Z,3.90
2023-04-07T17:26:57.900Z,2.80
2023-04-07T17:31:50.840Z,2.80
2023-04-07T17:36:43.647Z,3.20
2023-04-07T17:41:38.465Z,3.70
2023-04-07T17:46:32.108Z,3.40
2023-04-07T17:51:26.881Z,2.90
2023-04-07T17:56:20.439Z,3.30
2023-04-07T18:01:13.770Z,3.20
2023-04-07T18:06:08.569Z,3.40
2023-04-07T18:11:01.501Z,3.50
2023-04-07T18:15:55.209Z,3.50
2023-04-07T18:20:48.338Z,3.00
2023-04-07T18:25:41.150Z,3.70
2023-04-07T18:30:34.637Z,4.00
2023-04-07T18:35:28.660Z,3.20
2023-04-07T18:40:21.954Z,4.50
2023-04-07T18:45:14.788Z,3.50
2023-04-07T18:50:08.430Z,4.30
2023-04-07T18:55:01.249Z,3.70
2023-04-07T18:59:54.087Z,4.00
2023-04-07T19:04:46.881Z,5.30
2023-04-07T19:09:40.057Z,4.90
2023-04-07T19:14:32.861Z,5.30
2023-04-07T19:19:26.133Z,4.80
2023-04-07T19:24:18.964Z,4.90
2023-04-07T19:29:12.662Z,3.80
2023-04-07T19:34:05.475Z,4.50
2023-04-07T19:38:58.337Z,4.30
2023-04-07T19:43:51.682Z,4.10
2023-04-07T19:48:44.548Z,4.00
2023-04-07T19:53:37.641Z,4.50
2023-04-07T19:58:30.458Z,3.80
2023-04-07T20:03:24.442Z,3.80
2023-04-07T20:08:17.428Z,4.50
2023-04-07T20:13:10.602Z,4.50
2023-04-07T20:18:03.721Z,4.00
2023-04-07T20:22:56.616Z,3.60
2023-04-07T20:27:50.538Z,3.20
2023-04-07T20:32:43.615Z,2.90
2023-04-07T20:37:36.709Z,3.60
2023-04-07T20:42:29.500Z,3.40
2023-04-07T20:47:22.388Z,4.30
2023-04-07T20:52:15.275Z,4.50
2023-04-07T20:57:08.079Z,5.20
2023-04-07T21:02:01.054Z,4.40
2023-04-07T21:06:53.972Z,4.70
2023-04-07T21:11:46.874Z,4.00
2023-04-07T21:16:39.667Z,4.40
2023-04-07T21:21:32.727Z,4.00
2023-04-07T21:26:26.649Z,5.30
2023-04-07T21:31:23.634Z,3.90
2023-04-07T21:36:16.574Z,3.90
2023-04-07T21:41:09.653Z,4.90
2023-04-07T21:46:02.711Z,5.30
2023-04-07T21:50:55.696Z,4.90
2023-04-07T21:55:48.539Z,5.70
2023-04-07T22:00:42.026Z,6.60
2023-04-07T22:05:39.507Z,5.70
2023-04-07T22:10:33.014Z,5.30
2023-04-07T22:15:26.822Z,5.00
2023-04-07T22:20:19.680Z,4.70
2023-04-07T22:25:12.499Z,5.20
2023-04-07T22:30:08.694Z,4.70
2023-04-07T22:35:01.515Z,5.10
2023-04-07T22:39:54.520Z,6.10
2023-04-07T22:44:48.205Z,5.30
2023-04-07T22:49:41.061Z,5.20
2023-04-07T22:54:34.769Z,5.60
2023-04-07T22:59:27.717Z,5.00
2023-04-07T23:04:22.645Z,4.80
2023-04-07T23:09:15.798Z,5.80
2023-04-07T23:14:08.854Z,5.50
2023-04-07T23:19:02.336Z,5.80
2023-04-07T23:23:55.412Z,5.20
2023-04-07T23:28:48.797Z,6.00
2023-04-07T23:33:41.780Z,4.80
2023-04-07T23:38:36.377Z,5.30
2023-04-07T23:43:29.167Z,6.00
2023-04-07T23:48:21.961Z,5.60
2023-04-07T23:53:14.773Z,6.50
2023-04-07T23:58:07.569Z,6.00
